createdAt,value
2018-04-28T00:00:54.488Z,49.10
2018-04-28T00:03:22.051Z,48.90
2018-04-28T00:05:49.603Z,48.80
2018-04-28T00:11:10.994Z,48.30
2018-04-28T00:13:38.606Z,48.40
2018-04-28T00:16:12.518Z,48.50
2018-04-28T00:21:45.340Z,48.80
2018-04-28T00:24:15.667Z,49.00
2018-04-28T00:26:45.208Z,49.10
2018-04-28T00:29:14.304Z,49.00
2018-04-28T00:31:58.383Z,49.10
2018-04-28T00:34:27.590Z,49.20
2018-04-28T00:37:00.837Z,49.20
2018-04-28T00:39:28.491Z,49.20
2018-04-28T00:41:57.789Z,49.20
2018-04-28T00:44:25.412Z,49.10
2018-04-28T00:47:06.414Z,49.00
2018-04-28T00:49:51.355Z,48.90
2018-04-28T00:52:23.281Z,48.60
2018-04-28T00:54:58.164Z,48.60
2018-04-28T01:00:42.245Z,48.40
2018-04-28T01:03:09.817Z,48.50
2018-04-28T01:05:41.014Z,48.60
2018-04-28T01:08:08.697Z,48.80
2018-04-28T01:10:37.233Z,48.90
2018-04-28T01:13:08.436Z,48.50
2018-04-28T01:15:38.864Z,48.40
2018-04-28T01:18:13.265Z,48.60
2018-04-28T01:20:52.212Z,48.60
2018-04-28T01:23:32.300Z,48.70
2018-04-28T01:29:17.531Z,48.50
2018-04-28T01:31:45.130Z,48.80
2018-04-28T01:34:17.465Z,48.90
2018-04-28T01:36:59.924Z,49.00
2018-04-28T01:39:28.076Z,49.00
2018-04-28T01:42:16.244Z,49.00
2018-04-28T01:47:57.958Z,48.90
2018-04-28T01:50:25.481Z,49.00
2018-04-28T01:52:55.018Z,48.70
2018-04-28T01:55:29.198Z,48.90
2018-04-28T01:58:02.037Z,49.00
2018-04-28T02:00:37.164Z,48.90
2018-04-28T02:03:17.259Z,48.80
2018-04-28T02:09:05.372Z,48.90
2018-04-28T02:11:41.552Z,49.10
2018-04-28T02:14:17.760Z,49.40
2018-04-28T02:16:51.649Z,49.60
2018-04-28T02:22:25.640Z,49.10
2018-04-28T02:25:12.711Z,49.20
2018-04-28T02:27:50.818Z,49.00
2018-04-28T02:30:19.300Z,49.00
2018-04-28T02:32:50.893Z,49.20
2018-04-28T02:35:24.889Z,49.10
2018-04-28T02:38:09.173Z,49.00
2018-04-28T02:40:43.348Z,49.10
2018-04-28T02:43:13.494Z,49.20
2018-04-28T02:45:41.030Z,49.30
2018-04-28T02:48:11.485Z,49.60
2018-04-28T02:51:09.691Z,49.80
2018-04-28T02:53:41.815Z,50.00
2018-04-28T02:56:40.916Z,50.00
2018-04-28T02:59:15.250Z,49.70
2018-04-28T03:01:50.855Z,49.60
2018-04-28T03:04:23.924Z,49.50
2018-04-28T03:06:53.261Z,49.60
2018-04-28T03:09:30.746Z,49.60
2018-04-28T03:12:02.227Z,49.80
2018-04-28T03:14:31.380Z,49.70
2018-04-28T03:17:14.476Z,49.90
2018-04-28T03:19:43.807Z,50.00
2018-04-28T03:22:12.238Z,50.30
2018-04-28T03:24:51.460Z,50.50
2018-04-28T03:30:32.035Z,50.40
2018-04-28T03:33:14.904Z,50.50
2018-04-28T03:35:49.195Z,50.50
2018-04-28T03:41:31.460Z,50.80
2018-04-28T03:44:02.309Z,51.30
2018-04-28T03:46:32.211Z,51.40
2018-04-28T03:49:18.664Z,51.30
2018-04-28T03:51:50.193Z,51.30
2018-04-28T03:54:21.108Z,51.20
2018-04-28T03:56:50.560Z,51.20
2018-04-28T03:59:29.862Z,51.20
2018-04-28T04:02:09.223Z,51.30
2018-04-28T04:04:37.803Z,51.30
2018-04-28T04:07:07.655Z,51.40
2018-04-28T04:09:38.020Z,51.40
2018-04-28T04:15:16.315Z,51.00
2018-04-28T04:20:49.508Z,51.10
2018-04-28T04:23:23.486Z,51.20
2018-04-28T04:26:12.153Z,51.10
2018-04-28T04:28:42.321Z,51.20
2018-04-28T04:31:30.361Z,51.40
2018-04-28T04:34:17.430Z,51.20
2018-04-28T04:36:50.772Z,51.30
2018-04-28T04:42:40.611Z,51.60
2018-04-28T04:45:08.147Z,52.00
2018-04-28T04:47:45.018Z,52.10
2018-04-28T04:50:18.059Z,52.10
2018-04-28T04:52:49.209Z,51.90
2018-04-28T04:55:37.543Z,51.90
2018-04-28T04:58:16.883Z,51.90
2018-04-28T05:04:11.272Z,52.00
2018-04-28T05:06:39.528Z,52.20
2018-04-28T05:09:22.895Z,51.80
2018-04-28T05:12:02.283Z,51.80
2018-04-28T05:14:41.339Z,51.80
2018-04-28T05:17:16.279Z,52.00
2018-04-28T05:19:53.463Z,51.90
2018-04-28T05:25:35.089Z,50.60
2018-04-28T05:28:24.350Z,51.90
2018-04-28T05:31:02.857Z,52.00
2018-04-28T05:33:41.079Z,52.20
2018-04-28T05:36:14.586Z,52.60
2018-04-28T05:38:53.981Z,51.90
2018-04-28T05:41:33.265Z,51.80
2018-04-28T05:44:06.505Z,51.60
2018-04-28T05:46:51.422Z,51.50
2018-04-28T05:49:28.666Z,51.50
2018-04-28T05:52:13.868Z,51.40
2018-04-28T05:58:04.345Z,51.00
2018-04-28T06:00:33.825Z,51.20
2018-04-28T06:03:13.152Z,51.20
2018-04-28T06:09:00.092Z,51.50
2018-04-28T06:11:48.317Z,51.40
2018-04-28T06:14:41.448Z,51.30
2018-04-28T06:17:31.474Z,51.50
2018-04-28T06:20:08.719Z,50.70
2018-04-28T06:22:36.269Z,50.90
2018-04-28T06:25:04.763Z,50.60
2018-04-28T06:27:32.465Z,50.50
2018-04-28T06:30:00.009Z,50.30
2018-04-28T06:32:27.568Z,50.10
2018-04-28T06:34:55.107Z,50.10
2018-04-28T06:37:22.675Z,50.20
2018-04-28T06:39:50.199Z,49.80
2018-04-28T06:42:17.892Z,49.70
2018-04-28T06:44:45.421Z,49.40
2018-04-28T06:47:12.983Z,49.30
2018-04-28T06:49:40.558Z,49.40
2018-04-28T06:52:08.886Z,49.80
2018-04-28T06:54:36.447Z,49.80
2018-04-28T06:57:04.056Z,50.00
2018-04-28T06:59:31.612Z,49.90
2018-04-28T07:01:59.939Z,51.70
2018-04-28T07:04:27.567Z,51.70
2018-04-28T07:06:55.185Z,52.30
2018-04-28T07:09:22.767Z,52.80
2018-04-28T07:11:50.336Z,53.60
2018-04-28T07:14:17.900Z,53.90
2018-04-28T07:16:46.229Z,55.10
2018-04-28T07:19:13.805Z,55.00
2018-04-28T07:21:41.387Z,55.10
2018-04-28T07:24:09.152Z,54.70
2018-04-28T07:26:37.060Z,54.90
2018-04-28T07:29:04.642Z,54.70
2018-04-28T07:31:32.295Z,55.00
2018-04-28T07:33:59.851Z,55.10
2018-04-28T07:36:27.426Z,55.50
2018-04-28T07:38:54.975Z,55.00
2018-04-28T07:41:22.543Z,54.90
2018-04-28T07:43:50.080Z,55.20
2018-04-28T07:46:17.645Z,55.00
2018-04-28T07:48:45.216Z,54.40
2018-04-28T07:51:12.869Z,54.50
2018-04-28T07:53:40.442Z,54.70
2018-04-28T07:56:08.017Z,55.10
2018-04-28T07:58:35.549Z,55.10
2018-04-28T08:01:03.123Z,54.30
2018-04-28T08:03:30.699Z,54.20
2018-04-28T08:05:58.450Z,54.00
2018-04-28T08:08:26.004Z,54.10
2018-04-28T08:10:53.580Z,54.20
2018-04-28T08:13:21.198Z,54.10
2018-04-28T08:15:48.807Z,54.20
2018-04-28T08:18:16.655Z,54.60
2018-04-28T08:20:44.301Z,54.60
2018-04-28T08:23:11.831Z,54.40
2018-04-28T08:25:39.643Z,54.00
2018-04-28T08:28:07.171Z,54.20
2018-04-28T08:30:34.725Z,53.90
2018-04-28T08:33:02.247Z,53.60
2018-04-28T08:35:30.170Z,52.80
2018-04-28T08:37:57.883Z,52.40
2018-04-28T08:40:26.388Z,51.70
2018-04-28T08:42:53.941Z,51.60
2018-04-28T08:45:21.563Z,51.50
2018-04-28T08:47:49.093Z,50.70
2018-04-28T08:50:16.620Z,50.90
2018-04-28T08:52:45.117Z,50.70
2018-04-28T08:55:12.651Z,49.80
2018-04-28T08:57:40.188Z,50.20
2018-04-28T09:00:19.527Z,50.20
2018-04-28T09:02:47.121Z,50.40
2018-04-28T09:05:14.708Z,50.30
2018-04-28T09:07:42.293Z,49.70
2018-04-28T09:10:09.952Z,48.70
2018-04-28T09:12:37.618Z,48.40
2018-04-28T09:15:05.202Z,48.10
2018-04-28T09:17:32.792Z,48.30
2018-04-28T09:20:00.476Z,48.40
2018-04-28T09:22:29.369Z,48.50
2018-04-28T09:24:57.709Z,46.40
2018-04-28T09:27:26.053Z,46.40
2018-04-28T09:29:53.593Z,46.40
2018-04-28T09:32:21.230Z,46.30
2018-04-28T09:34:48.868Z,46.20
2018-04-28T09:37:16.418Z,46.20
2018-04-28T09:39:43.983Z,45.50
2018-04-28T09:42:12.312Z,45.80
2018-04-28T09:44:39.871Z,45.80
2018-04-28T09:47:07.528Z,46.00
2018-04-28T09:49:35.040Z,46.10
2018-04-28T09:52:03.389Z,45.70
2018-04-28T09:54:31.539Z,45.60
2018-04-28T09:56:59.058Z,45.10
2018-04-28T09:59:26.653Z,45.70
2018-04-28T10:01:58.092Z,45.70
2018-04-28T10:04:25.657Z,45.20
2018-04-28T10:06:53.349Z,45.40
2018-04-28T10:09:20.931Z,45.50
2018-04-28T10:11:48.488Z,45.40
2018-04-28T10:14:16.072Z,45.30
2018-04-28T10:16:44.372Z,45.50
2018-04-28T10:19:11.952Z,45.30
2018-04-28T10:21:39.662Z,45.40
2018-04-28T10:24:07.999Z,45.40
2018-04-28T10:26:35.530Z,45.20
2018-04-28T10:29:03.100Z,45.20
2018-04-28T10:31:30.720Z,45.20
2018-04-28T10:33:59.303Z,44.90
2018-04-28T10:36:26.964Z,44.90
2018-04-28T10:38:54.544Z,45.10
2018-04-28T10:41:22.144Z,45.00
2018-04-28T10:43:49.755Z,44.90
2018-04-28T10:46:17.571Z,45.00
2018-04-28T10:48:45.131Z,44.90
2018-04-28T10:51:12.693Z,44.80
2018-04-28T10:53:40.335Z,44.50
2018-04-28T10:56:07.811Z,44.30
2018-04-28T10:58:36.610Z,44.10
2018-04-28T11:01:04.912Z,44.20
2018-04-28T11:03:32.581Z,43.80
2018-04-28T11:06:00.925Z,43.80
2018-04-28T11:08:28.549Z,43.80
2018-04-28T11:10:56.899Z,43.80
2018-04-28T11:13:24.446Z,44.00
2018-04-28T11:15:52.093Z,44.00
2018-04-28T11:18:19.680Z,44.00
2018-04-28T11:20:47.462Z,43.40
2018-04-28T11:23:15.772Z,42.90
2018-04-28T11:25:43.701Z,43.10
2018-04-28T11:28:11.267Z,42.90
2018-04-28T11:30:38.919Z,42.40
2018-04-28T11:33:07.259Z,42.50
2018-04-28T11:35:34.926Z,42.50
2018-04-28T11:38:02.527Z,42.50
2018-04-28T11:40:30.820Z,42.50
2018-04-28T11:42:58.437Z,42.40
2018-04-28T11:45:26.266Z,42.50
2018-04-28T11:47:53.925Z,42.40
2018-04-28T11:50:21.450Z,42.60
2018-04-28T11:52:49.022Z,42.70
2018-04-28T11:55:16.633Z,42.60
2018-04-28T11:57:44.191Z,42.80
2018-04-28T12:00:11.808Z,43.00
2018-04-28T12:02:39.396Z,42.90
2018-04-28T12:05:06.970Z,42.20
2018-04-28T12:07:34.583Z,42.00
2018-04-28T12:10:02.174Z,42.30
2018-04-28T12:12:29.757Z,42.60
2018-04-28T12:14:57.280Z,42.50
2018-04-28T12:17:25.154Z,42.10
2018-04-28T12:19:53.340Z,42.20
2018-04-28T12:22:20.892Z,42.20
2018-04-28T12:24:48.472Z,42.50
2018-04-28T12:27:16.018Z,42.20
2018-04-28T12:29:44.652Z,41.80
2018-04-28T12:32:12.983Z,42.70
2018-04-28T12:34:40.515Z,42.20
2018-04-28T12:37:08.063Z,42.20
2018-04-28T12:39:36.466Z,42.40
2018-04-28T12:42:03.991Z,42.40
2018-04-28T12:44:31.591Z,42.50
2018-04-28T12:46:59.111Z,43.00
2018-04-28T12:49:27.439Z,42.80
2018-04-28T12:51:55.032Z,42.80
2018-04-28T12:54:22.593Z,42.90
2018-04-28T12:56:50.214Z,42.80
2018-04-28T12:59:17.848Z,42.70
2018-04-28T13:01:46.335Z,42.40
2018-04-28T13:04:13.878Z,42.40
2018-04-28T13:06:42.215Z,43.30
2018-04-28T13:09:09.744Z,42.60
2018-04-28T13:11:37.295Z,42.90
2018-04-28T13:14:04.853Z,42.60
2018-04-28T13:16:32.414Z,42.50
2018-04-28T13:18:59.974Z,42.60
2018-04-28T13:21:27.556Z,42.40
2018-04-28T13:23:55.228Z,42.40
2018-04-28T13:26:22.817Z,42.20
2018-04-28T13:28:50.385Z,42.10
2018-04-28T13:31:18.730Z,42.40
2018-04-28T13:33:46.256Z,42.40
2018-04-28T13:36:13.848Z,42.70
2018-04-28T13:38:41.359Z,42.40
2018-04-28T13:41:09.217Z,42.20
2018-04-28T13:43:36.699Z,42.10
2018-04-28T13:46:04.300Z,42.10
2018-04-28T13:48:31.854Z,42.20
2018-04-28T13:50:59.655Z,42.20
2018-04-28T13:53:27.978Z,42.10
2018-04-28T13:55:55.547Z,42.00
2018-04-28T13:58:23.121Z,42.20
2018-04-28T14:00:51.989Z,41.90
2018-04-28T14:03:19.566Z,41.60
2018-04-28T14:05:47.111Z,41.80
2018-04-28T14:08:14.660Z,41.80
2018-04-28T14:10:42.199Z,41.60
2018-04-28T14:13:09.724Z,41.50
2018-04-28T14:15:37.301Z,41.50
2018-04-28T14:18:05.595Z,41.90
2018-04-28T14:20:33.906Z,41.90
2018-04-28T14:23:01.468Z,41.90
2018-04-28T14:25:29.032Z,41.50
2018-04-28T14:27:56.556Z,41.60
2018-04-28T14:30:24.088Z,41.70
2018-04-28T14:32:51.644Z,40.80
2018-04-28T14:35:19.231Z,40.80
2018-04-28T14:37:46.822Z,41.00
2018-04-28T14:40:14.360Z,41.00
2018-04-28T14:42:41.923Z,40.80
2018-04-28T14:45:09.495Z,40.70
2018-04-28T14:47:37.086Z,40.70
2018-04-28T14:50:04.623Z,41.10
2018-04-28T14:52:32.213Z,41.20
2018-04-28T14:54:59.782Z,41.00
2018-04-28T14:57:27.665Z,41.10
2018-04-28T14:59:55.335Z,41.50
2018-04-28T15:02:22.868Z,41.40
2018-04-28T15:04:50.469Z,41.80
2018-04-28T15:07:18.029Z,41.70
2018-04-28T15:09:45.666Z,41.10
2018-04-28T15:12:13.901Z,40.70
2018-04-28T15:14:41.503Z,40.50
2018-04-28T15:17:09.811Z,40.90
2018-04-28T15:19:37.384Z,40.90
2018-04-28T15:22:04.911Z,40.90
2018-04-28T15:24:32.822Z,41.10
2018-04-28T15:27:00.408Z,40.90
2018-04-28T15:29:27.994Z,40.70
2018-04-28T15:31:55.704Z,40.80
2018-04-28T15:34:23.303Z,40.90
2018-04-28T15:36:50.848Z,40.40
2018-04-28T15:39:18.423Z,40.60
2018-04-28T15:41:45.948Z,40.60
2018-04-28T15:44:13.515Z,40.50
2018-04-28T15:46:41.072Z,40.60
2018-04-28T15:49:08.658Z,40.40
2018-04-28T15:51:36.196Z,40.40
2018-04-28T15:54:03.737Z,40.60
2018-04-28T15:56:31.310Z,40.90
2018-04-28T15:58:58.828Z,41.00
2018-04-28T16:01:26.413Z,40.40
2018-04-28T16:03:53.991Z,40.40
2018-04-28T16:06:21.570Z,40.60
2018-04-28T16:08:49.100Z,40.40
2018-04-28T16:11:16.709Z,40.60
2018-04-28T16:13:45.027Z,40.80
2018-04-28T16:16:12.589Z,40.80
2018-04-28T16:18:40.166Z,40.70
2018-04-28T16:21:07.777Z,40.60
2018-04-28T16:23:35.332Z,40.90
2018-04-28T16:26:03.210Z,40.70
2018-04-28T16:28:30.778Z,41.30
2018-04-28T16:30:58.312Z,41.30
2018-04-28T16:33:26.631Z,40.90
2018-04-28T16:35:54.198Z,40.90
2018-04-28T16:38:21.729Z,40.70
2018-04-28T16:40:49.288Z,40.90
2018-04-28T16:43:17.616Z,41.00
2018-04-28T16:45:45.133Z,41.00
2018-04-28T16:48:12.724Z,40.90
2018-04-28T16:50:40.273Z,40.60
2018-04-28T16:53:07.826Z,40.70
2018-04-28T16:55:35.415Z,40.80
2018-04-28T16:58:02.971Z,41.40
2018-04-28T17:00:30.526Z,42.20
2018-04-28T17:02:58.086Z,43.00
2018-04-28T17:05:25.634Z,43.20
2018-04-28T17:07:53.211Z,43.20
2018-04-28T17:10:20.764Z,43.40
2018-04-28T17:12:48.329Z,44.10
2018-04-28T17:15:15.943Z,44.30
2018-04-28T17:17:53.405Z,44.30
2018-04-28T17:20:21.754Z,44.70
2018-04-28T17:22:49.296Z,44.70
2018-04-28T17:25:16.872Z,45.00
2018-04-28T17:27:44.419Z,45.10
2018-04-28T17:30:12.017Z,45.20
2018-04-28T17:32:39.637Z,45.20
2018-04-28T17:35:07.275Z,45.40
2018-04-28T17:37:34.858Z,45.40
2018-04-28T17:40:02.420Z,45.60
2018-04-28T17:42:29.997Z,45.60
2018-04-28T17:44:57.539Z,45.90
2018-04-28T17:47:25.119Z,46.00
2018-04-28T17:49:52.656Z,46.20
2018-04-28T17:52:20.224Z,46.10
2018-04-28T17:54:47.777Z,46.20
2018-04-28T17:57:15.335Z,46.10
2018-04-28T17:59:42.960Z,46.20
2018-04-28T18:02:11.314Z,46.40
2018-04-28T18:04:38.887Z,46.30
2018-04-28T18:07:06.520Z,46.40
2018-04-28T18:09:34.089Z,46.40
2018-04-28T18:12:01.619Z,46.50
2018-04-28T18:14:29.198Z,46.40
2018-04-28T18:16:56.717Z,46.50
2018-04-28T18:19:24.415Z,46.60
2018-04-28T18:21:51.985Z,46.70
2018-04-28T18:24:19.523Z,46.70
2018-04-28T18:26:47.066Z,46.80
2018-04-28T18:29:14.671Z,46.80
2018-04-28T18:31:42.246Z,46.90
2018-04-28T18:34:09.828Z,47.00
2018-04-28T18:36:38.151Z,47.30
2018-04-28T18:39:05.685Z,47.30
2018-04-28T18:41:33.240Z,47.20
2018-04-28T18:44:00.801Z,47.30
2018-04-28T18:46:28.395Z,47.40
2018-04-28T18:48:55.966Z,47.30
2018-04-28T18:51:23.484Z,47.30
2018-04-28T18:53:51.040Z,47.30
2018-04-28T18:56:18.581Z,47.50
2018-04-28T18:58:46.176Z,47.60
2018-04-28T19:01:13.721Z,47.50
2018-04-28T19:03:41.268Z,47.50
2018-04-28T19:06:09.561Z,48.40
2018-04-28T19:08:37.105Z,47.70
2018-04-28T19:11:04.660Z,47.90
2018-04-28T19:13:32.201Z,47.90
2018-04-28T19:16:00.579Z,48.10
2018-04-28T19:18:28.115Z,48.10
2018-04-28T19:20:55.757Z,48.00
2018-04-28T19:23:23.312Z,48.20
2018-04-28T19:25:50.830Z,48.30
2018-04-28T19:28:18.469Z,48.60
2018-04-28T19:30:47.097Z,48.80
2018-04-28T19:33:14.629Z,48.80
2018-04-28T19:35:42.963Z,48.60
2018-04-28T19:38:10.540Z,48.50
2018-04-28T19:40:38.107Z,48.60
2018-04-28T19:43:05.687Z,48.60
2018-04-28T19:45:33.990Z,48.60
2018-04-28T19:48:01.836Z,48.60
2018-04-28T19:50:30.117Z,48.70
2018-04-28T19:52:57.712Z,48.70
2018-04-28T19:55:25.233Z,48.80
2018-04-28T19:57:52.809Z,48.90
2018-04-28T20:00:20.470Z,48.80
2018-04-28T20:02:48.159Z,48.80
2018-04-28T20:05:15.673Z,48.90
2018-04-28T20:07:43.308Z,49.00
2018-04-28T20:10:10.872Z,49.10
2018-04-28T20:12:38.444Z,49.10
2018-04-28T20:15:05.986Z,49.20
2018-04-28T20:17:33.562Z,49.20
2018-04-28T20:20:01.389Z,49.40
2018-04-28T20:22:40.775Z,49.50
2018-04-28T20:25:20.040Z,49.30
2018-04-28T20:27:47.706Z,49.40
2018-04-28T20:30:15.328Z,49.20
2018-04-28T20:32:42.836Z,49.30
2018-04-28T20:35:10.383Z,49.30
2018-04-28T20:37:37.958Z,49.20
2018-04-28T20:40:05.518Z,49.20
2018-04-28T20:42:33.079Z,49.20
2018-04-28T20:45:01.239Z,49.40
2018-04-28T20:47:29.240Z,49.50
2018-04-28T20:49:56.817Z,49.80
2018-04-28T20:52:24.395Z,50.20
2018-04-28T20:54:51.956Z,50.50
2018-04-28T20:57:19.512Z,50.60
2018-04-28T20:59:47.862Z,50.90
2018-04-28T21:02:15.416Z,50.80
2018-04-28T21:04:42.986Z,51.20
2018-04-28T21:07:10.573Z,51.40
2018-04-28T21:09:38.286Z,51.60
2018-04-28T21:12:05.846Z,51.90
2018-04-28T21:14:33.418Z,52.10
2018-04-28T21:17:00.979Z,52.30
2018-04-28T21:19:28.632Z,52.40
2018-04-28T21:21:56.164Z,52.70
2018-04-28T21:24:23.748Z,52.70
2018-04-28T21:26:51.303Z,52.60
2018-04-28T21:29:18.839Z,52.70
2018-04-28T21:31:46.429Z,52.80
2018-04-28T21:34:13.974Z,52.80
2018-04-28T21:36:41.618Z,52.80
2018-04-28T21:39:09.967Z,52.60
2018-04-28T21:41:37.498Z,52.60
2018-04-28T21:44:05.063Z,52.30
2018-04-28T21:46:32.754Z,52.70
2018-04-28T21:49:00.981Z,52.90
2018-04-28T21:51:28.500Z,52.90
2018-04-28T21:53:56.841Z,52.80
2018-04-28T21:56:24.393Z,52.80
2018-04-28T21:58:51.956Z,52.80
2018-04-28T22:01:19.511Z,52.80
2018-04-28T22:03:47.056Z,52.80
2018-04-28T22:06:14.695Z,52.80
2018-04-28T22:08:42.232Z,52.80
2018-04-28T22:11:10.628Z,52.90
2018-04-28T22:13:38.603Z,53.40
2018-04-28T22:16:06.404Z,53.00
2018-04-28T22:18:33.981Z,53.30
2018-04-28T22:21:01.590Z,53.10
2018-04-28T22:23:29.192Z,52.90
2018-04-28T22:25:56.700Z,53.10
2018-04-28T22:28:25.054Z,53.10
2018-04-28T22:30:52.636Z,53.20
2018-04-28T22:33:20.211Z,53.30
2018-04-28T22:35:47.776Z,53.30
2018-04-28T22:38:15.329Z,53.30
2018-04-28T22:40:42.944Z,53.60
2018-04-28T22:43:10.540Z,53.90
2018-04-28T22:45:38.238Z,54.10
2018-04-28T22:48:05.903Z,54.10
2018-04-28T22:50:33.480Z,54.40
2018-04-28T22:53:01.039Z,54.60
2018-04-28T22:55:28.682Z,54.70
2018-04-28T22:57:56.204Z,54.70
2018-04-28T23:00:23.724Z,54.90
2018-04-28T23:02:51.275Z,54.90
2018-04-28T23:05:18.812Z,55.00
2018-04-28T23:07:46.361Z,55.10
2018-04-28T23:10:13.895Z,55.00
2018-04-28T23:12:42.235Z,54.90
2018-04-28T23:15:09.764Z,54.90
2018-04-28T23:17:37.673Z,54.80
2018-04-28T23:20:05.542Z,55.00
2018-04-28T23:22:33.122Z,54.90
2018-04-28T23:25:00.677Z,54.80
2018-04-28T23:27:28.260Z,54.70
2018-04-28T23:29:55.844Z,54.70
2018-04-28T23:32:23.368Z,54.80
2018-04-28T23:34:51.202Z,54.50
2018-04-28T23:37:18.749Z,54.40
2018-04-28T23:39:46.435Z,54.00
2018-04-28T23:42:13.987Z,53.90
2018-04-28T23:44:41.713Z,53.90
2018-04-28T23:47:09.272Z,53.30
2018-04-28T23:49:36.834Z,53.20
2018-04-28T23:52:04.600Z,52.80
2018-04-28T23:54:32.383Z,52.30
2018-04-28T23:57:00.150Z,52.00
2018-04-28T23:59:27.729Z,51.80
